Weather observations for the past three days for
Key West Naval Air Station
Imperial (Metric)
Date Time (edt) Wind (mph) Vis. (mi.) Weather Sky Cond. Temperature (ºF) Relative Humidity Wind Chill (°F) Heat Index (°F) Pressure Precipitation (in)
Air Dwpt 6 hour altimeter (in) sea level (mb) 1 hr 3 hr 6 hr
Max. Min.
02 17:53 Vrbl 5 10.00 Fair CLR 84 73.9 72% 91 29.88 1011.5
02 16:53 S 8 10.00 Fair CLR 84.9 73.9 70% 92 29.86 1011.1
02 15:53 SW 8 10.00 A Few Clouds FEW030 84.9 73.9 70% 92 29.88 1011.8
02 14:53 SW 9 10.00 A Few Clouds FEW019 84.9 73.9 70% 92 29.9 1012.5
02 13:53 S 12 10.00 Partly Cloudy SCT017 84.9 73.9 86 81 70% 92 29.9 1012.4
02 12:53 SW 13 10.00 A Few Clouds FEW017 86 75 70% 95 29.91 1012.7
02 11:53 S 14 10.00 A Few Clouds FEW018 84.9 75 72% 93 29.92 1013.0
02 10:53 S 13 10.00 A Few Clouds FEW016 84 75 74% 92 29.92 1012.9
02 09:53 SW 14 10.00 Partly Cloudy SCT017 82.9 75 77% 90 29.91 1012.7
02 08:53 SW 13 10.00 Fair CLR 82.9 73.9 74% 89 29.9 1012.4
02 07:53 SW 13 10.00 Fair CLR 81 73.9 81 80.1 79% 86 29.9 1012.2
02 06:53 S 13 10.00 Partly Cloudy SCT015 SCT050 80.1 73 79% 84 29.89 1011.9
02 05:53 S 14 10.00 Mostly Cloudy BKN015 80.1 73.9 82% 85 29.87 1011.5
02 04:53 SE 10 10.00 Fair CLR 80.1 72 76% 84 29.88 1011.6
02 03:53 SE 13 10.00 Fair CLR 80.1 72 76% 84 29.88 1011.7
02 02:53 S 12 10.00 Mostly Cloudy BKN055 BKN070 81 73 77% 86 29.89 1011.8
02 01:53 S 12 10.00 Mostly Cloudy BKN050 BKN070 81 72 82 79 74% 85 29.89 1011.9
02 00:53 SE 10 10.00 Overcast OVC065 81 73 77% 86 29.91 1012.6
01 23:53 SE 8 10.00 Mostly Cloudy BKN060 80.1 72 76% 84 29.92 1012.8
01 22:53 SE 7 10.00 A Few Clouds FEW060 80.1 70 71% 83 29.91 1012.6
01 21:53 SE 7 10.00 Fair CLR 80.1 70 71% 83 29.89 1012.1
01 20:53 SE 7 10.00 Fair CLR 80.1 69.1 69% 83 29.87 1011.4
01 19:53 NE 5 10.00 Fair CLR 82 69.1 84.9 82 65% 85 29.85 1010.7
01 18:53 NE 5 10.00 Fair CLR 84 68 59% 87 29.84 1010.4
01 17:53 SE 8 10.00 Fair CLR 82.9 70 65% 87 29.85 1010.6
01 16:53 SE 9 10.00 Fair CLR 84.9 68 57% 88 29.86 1011.1
01 15:53 SE 6 10.00 A Few Clouds FEW030 84.9 70 61% 89 29.89 1011.9
01 14:53 S 9 10.00 Fair CLR 84.9 70 61% 89 29.9 1012.5
01 13:53 SE 9 10.00 Fair CLR 84 70 84.9 78.1 63% 88 29.92 1012.9
01 12:53 SE 9 10.00 A Few Clouds FEW030 82.9 70 65% 87 29.93 1013.4
01 11:53 Vrbl 7 10.00 A Few Clouds FEW028 84 71.1 65% 89 29.93 1013.5
01 10:53 Vrbl 5 10.00 A Few Clouds FEW025 82 70 67% 86 29.93 1013.3
01 09:53 SE 7 10.00 Partly Cloudy SCT025 82 70 67% 86 29.93 1013.3
01 08:53 SE 7 10.00 Partly Cloudy SCT025 81 70 69% 84 29.93 1013.3
01 07:53 E 3 10.00 Partly Cloudy SCT025 78.1 70 78.1 73.9 76% 80 29.93 1013.3
01 06:53 SE 5 10.00 Partly Cloudy SCT025 75 68 79% 76 29.9 1012.5
01 05:53 Calm 10.00 A Few Clouds FEW027 75.9 68 77% 77 29.89 1012.0
01 04:53 Calm 10.00 A Few Clouds FEW024 75.9 68 77% 77 29.89 1012.0
01 03:53 Calm 10.00 A Few Clouds FEW023 77 69.1 77% 79 29.89 1011.9
01 02:53 Calm 10.00 Mostly Cloudy BKN024 77 69.1 77% 79 29.89 1012.1
01 01:53 Calm 10.00 Fair CLR 75.9 68 80.1 75 77% 77 29.91 1012.6
01 00:53 Calm 10.00 Fair CLR 75.9 69.1 79% 77 29.92 1013.0
30 23:53 Calm 10.00 Fair CLR 78.1 69.1 74% 80 29.92 1013.1
30 22:53 N 3 10.00 Fair CLR 78.1 69.1 74% 80 29.92 1013.1
30 21:53 N 5 10.00 Fair CLR 78.1 69.1 74% 80 29.91 1012.6
30 20:53 N 6 10.00 A Few Clouds FEW030 79 69.1 72% 82 29.89 1012.1
30 19:53 N 7 10.00 A Few Clouds FEW028 80.1 68 84 80.1 67% 83 29.88 1011.6
30 18:53 SW 6 10.00 A Few Clouds FEW025 82 68 63% 85 29.86 1011.1
30 17:53 S 7 10.00 A Few Clouds FEW025 82 68 63% 85 29.86 1011.1
30 16:53 Vrbl 6 10.00 A Few Clouds FEW025 82.9 66.9 59% 86 29.87 1011.4
30 15:53 S 7 10.00 A Few Clouds FEW025 84 68 59% 87 29.89 1011.9
30 14:53 S 8 10.00 Partly Cloudy SCT025 82.9 69.1 63% 87 29.9 1012.2
30 13:53 S 7 10.00 Partly Cloudy SCT025 84 69.1 84.9 77 61% 88 29.9 1012.2
30 12:53 S 6 10.00 Partly Cloudy SCT025 82.9 68 61% 86 29.93 1013.3
30 11:53 S 5 10.00 Partly Cloudy SCT025 82.9 68 61% 86 29.94 1013.7
30 10:53 Vrbl 5 10.00 Partly Cloudy SCT025 SCT150 82 70 67% 86 29.94 1013.8
30 09:53 E 3 10.00 Partly Cloudy SCT025 SCT150 81 69.1 67% 84 29.93 1013.4
30 08:53 E 3 10.00 Partly Cloudy SCT025 SCT150 79 70 74% 82 29.94 1013.8
30 07:53 E 3 10.00 Partly Cloudy SCT025 77 70 77 73.9 79% 79 29.93 1013.5
30 06:53 E 3 10.00 Partly Cloudy SCT025 75.9 68 77% 77 29.92 1013.1
30 05:53 Calm 10.00 Partly Cloudy SCT024 73.9 68 82% 29.91 1012.6
30 04:53 Calm 10.00 A Few Clouds FEW022 75.9 68 77% 77 29.91 1012.5
30 03:53 Calm 10.00 Fair CLR 75 66.9 76% 76 29.9 1012.4
30 02:53 SE 5 10.00 Fair CLR 75 66.9 76% 76 29.91 1012.8
30 01:53 E 3 10.00 Fair CLR 75.9 66.9 79 75 74% 77 29.93 1013.4
30 00:53 E 3 10.00 Fair CLR 78.1 68 71% 80 29.95 1014.1
29 23:53 NE 3 10.00 Fair CLR 78.1 68 71% 80 29.96 1014.3
29 22:53 Calm 10.00 Fair CLR 78.1 68 71% 80 29.96 1014.3
29 21:53 Calm 10.00 A Few Clouds FEW030 78.1 68 71% 80 29.94 1013.9
29 20:53 SE 5 10.00 A Few Clouds FEW030 79 68 69% 81 29.93 1013.4
29 19:53 S 5 10.00 A Few Clouds FEW030 79 66.9 84.9 79 67% 81 29.91 1012.7
29 18:53 S 7 10.00 A Few Clouds FEW030 81 68 65% 84 29.91 1012.7
Date Time (edt) Wind (mph) Vis. (mi.) Weather Sky Cond. Air Dwpt Max. Min. Relative Humidity Wind Chill (°F) Heat Index (°F) altimeter (in) sea level (mb) 1 hr 3 hr 6 hr
6 hour
Temperature (ºF) Pressure Precipitation (in)